Time;durP1;ratioP1;P1;durP2;ratioP2;P2;SDS_P1;SDS_P2;PMS_P1;PMS_P2;Temp;Humidity;BMP_temperature;BMP_pressure;BME280_temperature;BME280_humidity;BME280_pressure;Samples;Min_cycle;Max_cycle;Signal;HPM_P1;HPM_P2
2023/07/28 00:01:19;;;;;;;3.65;2.00;;;;;;;19.01;88.50;100282.41;7395003;19;20022;-63
2023/07/28 00:03:47;;;;;;;6.95;2.38;;;;;;;18.99;88.64;100276.38;7394755;19;20500;-63
2023/07/28 00:06:14;;;;;;;5.20;2.40;;;;;;;18.97;88.64;100275.72;7392950;19;20016;-63
2023/07/28 00:08:41;;;;;;;4.95;2.90;;;;;;;18.97;88.54;100273.88;7393636;19;20025;-63
2023/07/28 00:11:13;;;;;;;4.93;2.67;;;;;;;18.94;88.58;100279.59;7396162;19;20028;-63
2023/07/28 00:13:42;;;;;;;4.55;2.83;;;;;;;18.90;88.66;100280.13;7396592;19;20078;-63
2023/07/28 00:16:09;;;;;;;6.47;2.75;;;;;;;18.93;88.73;100277.94;7392555;19;20048;-65
2023/07/28 00:18:37;;;;;;;5.15;2.50;;;;;;;18.96;88.67;100274.03;7396098;19;20098;-63
2023/07/28 00:21:06;;;;;;;3.67;2.30;;;;;;;18.96;88.47;100282.09;7395899;19;20519;-63
2023/07/28 00:23:33;;;;;;;5.15;2.67;;;;;;;18.97;88.30;100275.72;7396024;19;20033;-63
2023/07/28 00:26:01;;;;;;;7.57;3.03;;;;;;;18.91;88.48;100279.94;7393276;19;20078;-63
2023/07/28 00:28:28;;;;;;;5.22;2.75;;;;;;;18.94;88.16;100282.28;7393283;19;20022;-65
2023/07/28 00:30:55;;;;;;;7.45;2.75;;;;;;;18.95;88.49;100283.09;7396314;19;20484;-65
2023/07/28 00:33:23;;;;;;;5.65;2.83;;;;;;;18.94;88.36;100286.81;7396736;19;20021;-64
2023/07/28 00:35:50;;;;;;;4.65;2.63;;;;;;;18.95;87.85;100289.31;7392136;19;20089;-65
2023/07/28 00:38:18;;;;;;;5.93;2.70;;;;;;;18.90;88.27;100282.81;7395809;19;20014;-62
2023/07/28 00:40:45;;;;;;;4.70;2.53;;;;;;;18.90;88.63;100280.97;7393443;19;20019;-62
2023/07/28 00:43:12;;;;;;;6.85;2.80;;;;;;;18.91;88.37;100284.47;7395414;19;20015;-62
2023/07/28 00:45:40;;;;;;;4.57;2.58;;;;;;;18.87;88.09;100275.94;7392710;19;20120;-62
2023/07/28 00:48:12;;;;;;;7.22;2.90;;;;;;;18.89;88.22;100279.31;7392101;19;20026;-63
2023/07/28 00:50:45;;;;;;;6.32;3.63;;;;;;;18.90;87.82;100270.22;7394947;19;20097;-64
2023/07/28 00:53:12;;;;;;;6.72;3.20;;;;;;;18.85;88.07;100279.81;7393741;19;20125;-63
2023/07/28 00:55:40;;;;;;;6.47;3.50;;;;;;;18.89;87.88;100286.53;7392400;19;20018;-63
2023/07/28 00:58:10;;;;;;;9.60;4.25;;;;;;;18.87;88.28;100281.31;7394617;19;20486;-64
2023/07/28 01:00:37;;;;;;;9.73;4.63;;;;;;;18.91;88.28;100279.94;7393092;19;20039;-64
2023/07/28 01:03:05;;;;;;;8.52;3.65;;;;;;;18.95;88.16;100285.78;7394099;19;20026;-64
2023/07/28 01:05:44;;;;;;;6.18;2.85;;;;;;;19.01;87.35;100276.19;7392365;19;20014;-64
2023/07/28 01:08:19;;;;;;;5.13;2.35;;;;;;;18.92;87.70;100272.72;7392800;19;20028;-63
2023/07/28 01:10:46;;;;;;;5.55;2.63;;;;;;;18.90;87.85;100283.66;7393861;19;20483;-63
2023/07/28 01:13:14;;;;;;;4.95;2.53;;;;;;;18.90;87.98;100280.13;7394042;19;20014;-63
2023/07/28 01:15:41;;;;;;;3.80;2.80;;;;;;;18.84;87.78;100272.78;7390747;19;20123;-64
2023/07/28 01:18:09;;;;;;;6.88;2.75;;;;;;;18.85;87.87;100280.69;7393091;19;20022;-63
2023/07/28 01:20:38;;;;;;;5.97;2.80;;;;;;;18.91;87.56;100279.13;7393475;19;20516;-63
2023/07/28 01:23:13;;;;;;;5.05;2.90;;;;;;;18.97;87.62;100281.09;7394746;19;20354;-63
2023/07/28 01:26:28;;;;;;;6.78;3.40;;;;;;;18.98;86.79;100280.91;7392065;19;20019;-63
2023/07/28 01:28:56;;;;;;;7.00;3.28;;;;;;;18.86;87.70;100276.97;7388516;19;20025;-63
2023/07/28 01:31:23;;;;;;;6.45;3.50;;;;;;;18.87;87.49;100280.47;7389224;19;20007;-64
2023/07/28 01:33:51;;;;;;;6.20;4.15;;;;;;;18.90;87.69;100280.13;7394099;19;20015;-64
2023/07/28 01:36:18;;;;;;;6.95;4.05;;;;;;;18.86;87.80;100286.88;7388886;19;20018;-64
2023/07/28 01:38:46;;;;;;;10.40;4.65;;;;;;;18.88;87.62;100282.16;7392296;19;20042;-65
2023/07/28 01:41:13;;;;;;;8.23;4.35;;;;;;;18.88;87.66;100279.47;7392669;19;20014;-65
2023/07/28 01:43:41;;;;;;;7.95;4.55;;;;;;;18.87;87.88;100277.81;7393233;19;20499;-65
2023/07/28 01:46:09;;;;;;;10.63;5.22;;;;;;;18.84;87.81;100278.97;7390636;19;20086;-65
2023/07/28 01:48:37;;;;;;;10.73;5.82;;;;;;;18.88;87.31;100284.81;7391603;19;20038;-65
2023/07/28 01:51:07;;;;;;;9.48;5.22;;;;;;;18.85;87.31;100283.34;7393124;19;20018;-65
2023/07/28 01:53:34;;;;;;;9.23;5.28;;;;;;;18.86;87.84;100289.56;7390697;19;20026;-65
2023/07/28 01:56:02;;;;;;;6.68;4.20;;;;;;;18.88;87.66;100282.97;7388931;19;20167;-65
2023/07/28 01:58:29;;;;;;;11.25;5.15;;;;;;;18.88;87.43;100284.81;7392069;19;20086;-65
2023/07/28 02:00:56;;;;;;;8.60;4.65;;;;;;;18.90;87.50;100290.88;7392994;19;20019;-65
2023/07/28 02:03:24;;;;;;;9.15;5.00;;;;;;;18.88;87.69;100292.88;7392589;19;20023;-65
2023/07/28 02:05:52;;;;;;;8.23;4.93;;;;;;;18.82;87.66;100293.59;7390282;19;20453;-65
2023/07/28 02:08:20;;;;;;;9.45;5.40;;;;;;;18.84;87.94;100286.19;7389425;19;20024;-65
2023/07/28 02:10:47;;;;;;;9.82;5.53;;;;;;;18.84;87.52;100286.19;7393066;19;20021;-65
2023/07/28 02:13:14;;;;;;;9.02;5.20;;;;;;;18.87;87.54;100288.53;7392691;19;20027;-65
2023/07/28 02:15:41;;;;;;;9.48;4.82;;;;;;;18.90;87.79;100294.38;7390266;19;20022;-64
2023/07/28 02:18:09;;;;;;;7.40;4.43;;;;;;;18.89;87.79;100292.72;7392202;19;20011;-65
2023/07/28 02:20:37;;;;;;;9.48;4.63;;;;;;;18.93;87.68;100301.25;7390435;19;20025;-65
2023/07/28 02:23:05;;;;;;;7.22;4.55;;;;;;;18.90;88.04;100294.38;7391065;19;20018;-65
2023/07/28 02:25:32;;;;;;;7.25;4.20;;;;;;;18.80;87.96;100276.84;7389914;19;20047;-68
2023/07/28 02:27:59;;;;;;;8.73;4.75;;;;;;;18.93;87.94;100293.19;7391004;19;20034;-65
2023/07/28 02:30:26;;;;;;;8.65;5.18;;;;;;;18.95;87.40;100302.72;7391955;19;20100;-69
2023/07/28 02:32:54;;;;;;;11.07;6.63;;;;;;;18.93;87.69;100314.66;7391944;19;20018;-68
2023/07/28 02:35:21;;;;;;;12.05;7.30;;;;;;;18.95;87.56;100312.63;7390995;19;20018;-66
2023/07/28 02:37:49;;;;;;;11.25;6.65;;;;;;;18.94;87.81;100314.47;7391954;19;20046;-66
2023/07/28 02:40:16;;;;;;;13.43;8.38;;;;;;;18.93;87.37;100303.94;7392353;19;20010;-67
2023/07/28 02:42:44;;;;;;;14.13;8.02;;;;;;;18.94;87.84;100309.09;7390324;19;20021;-63
2023/07/28 02:45:11;;;;;;;14.70;8.63;;;;;;;18.94;88.13;100306.44;7390893;19;20019;-63
2023/07/28 02:47:38;;;;;;;13.57;8.10;;;;;;;18.96;87.88;100308.91;7391238;19;20015;-63
2023/07/28 02:50:06;;;;;;;14.00;7.38;;;;;;;18.94;87.98;100316.31;7391711;19;20022;-63
2023/07/28 02:52:33;;;;;;;13.35;7.85;;;;;;;18.93;88.08;100312.81;7391676;19;20024;-65
2023/07/28 02:55:00;;;;;;;12.85;7.38;;;;;;;18.97;87.98;100314.13;7389736;19;20614;-64
2023/07/28 02:57:28;;;;;;;10.60;6.90;;;;;;;18.97;87.90;100314.13;7389484;19;20015;-63
2023/07/28 02:59:56;;;;;;;12.25;7.00;;;;;;;18.93;87.88;100307.44;7389464;19;20051;-61
2023/07/28 03:02:23;;;;;;;14.02;7.13;;;;;;;18.94;87.83;100306.44;7391298;19;20014;-61
2023/07/28 03:04:50;;;;;;;11.35;7.30;;;;;;;18.91;87.79;100309.47;7389617;19;20018;-63
2023/07/28 03:07:17;;;;;;;10.07;5.55;;;;;;;18.93;88.15;100307.44;7389683;19;20046;-62
2023/07/28 03:09:45;;;;;;;11.60;6.38;;;;;;;18.94;87.62;100308.28;7389250;19;20019;-62
2023/07/28 03:12:12;;;;;;;11.25;6.45;;;;;;;18.97;87.86;100315.97;7391039;19;20059;-62
2023/07/28 03:14:40;;;;;;;10.43;6.68;;;;;;;18.98;87.37;100318.47;7389877;19;20023;-62
2023/07/28 03:17:07;;;;;;;12.52;8.05;;;;;;;18.98;87.51;100315.78;7389005;19;20130;-64
2023/07/28 03:19:34;;;;;;;11.80;7.80;;;;;;;18.98;87.77;100321.16;7389862;19;20039;-67
2023/07/28 03:22:01;;;;;;;12.20;7.75;;;;;;;19.01;87.70;100309.25;7390271;19;20010;-64
2023/07/28 03:24:29;;;;;;;11.68;7.03;;;;;;;19.02;87.61;100324.31;7388975;19;20025;-66
2023/07/28 03:26:56;;;;;;;10.32;6.55;;;;;;;18.98;87.51;100318.47;7386746;19;20074;-64
2023/07/28 03:29:23;;;;;;;10.07;6.28;;;;;;;18.98;87.78;100326.53;7385378;19;20354;-63
2023/07/28 03:31:51;;;;;;;11.90;6.18;;;;;;;18.99;87.50;100317.44;7388526;19;20491;-66
2023/07/28 03:34:18;;;;;;;10.07;6.30;;;;;;;19.02;87.80;100328.84;7395982;19;20100;-66
2023/07/28 03:36:45;;;;;;;11.07;6.80;;;;;;;19.02;87.46;100332.38;7395025;19;20019;-67
2023/07/28 03:39:13;;;;;;;9.95;5.80;;;;;;;18.97;88.00;100316.81;7398217;19;20056;-66
2023/07/28 03:41:40;;;;;;;12.10;6.47;;;;;;;18.97;88.23;100327.53;7395483;19;20089;-62
2023/07/28 03:44:07;;;;;;;10.95;6.53;;;;;;;18.94;88.42;100322.53;7396178;19;20030;-65
2023/07/28 03:46:34;;;;;;;10.43;6.25;;;;;;;18.92;88.43;100324.53;7395849;19;20100;-67
2023/07/28 03:49:02;;;;;;;9.52;5.28;;;;;;;18.89;88.45;100319.56;7395575;19;20031;-66
2023/07/28 03:51:29;;;;;;;9.38;4.60;;;;;;;18.93;88.49;100326.22;7397784;19;20491;-62
2023/07/28 03:53:57;;;;;;;8.82;4.07;;;;;;;18.93;88.50;100330.78;7397092;19;20015;-63
2023/07/28 03:56:24;;;;;;;6.60;3.22;;;;;;;18.92;88.44;100331.75;7395461;19;20022;-65
2023/07/28 03:58:53;;;;;;;7.05;3.05;;;;;;;18.89;88.63;100332.13;7396966;19;20015;-66
2023/07/28 04:01:21;;;;;;;5.13;3.00;;;;;;;18.86;88.57;100333.31;7397373;19;20034;-65
2023/07/28 04:03:49;;;;;;;6.20;3.00;;;;;;;18.87;88.68;100334.16;7396692;19;20018;-64
2023/07/28 04:06:16;;;;;;;4.13;2.60;;;;;;;18.88;88.41;100350.06;7394952;19;20014;-62
2023/07/28 04:08:44;;;;;;;4.38;2.45;;;;;;;18.89;88.74;100350.91;7395338;19;20011;-65
2023/07/28 04:11:11;;;;;;;7.35;2.78;;;;;;;18.87;88.27;100347.56;7397123;19;20043;-63
2023/07/28 04:13:38;;;;;;;6.40;3.60;;;;;;;18.91;88.56;100354.25;7396287;19;20170;-65
2023/07/28 04:16:06;;;;;;;5.63;3.47;;;;;;;18.92;88.56;100351.38;7394889;19;20064;-62
2023/07/28 04:18:33;;;;;;;6.10;3.70;;;;;;;18.94;88.15;100354.72;7397023;19;20018;-64
2023/07/28 04:21:00;;;;;;;6.45;3.00;;;;;;;18.97;88.14;100348.19;7396833;19;20535;-66
2023/07/28 04:23:27;;;;;;;6.22;3.80;;;;;;;18.95;88.06;100345.66;7395920;19;20014;-67
2023/07/28 04:25:55;;;;;;;7.30;4.22;;;;;;;18.98;88.08;100347.16;7394506;19;20046;-68
2023/07/28 04:28:24;;;;;;;6.78;4.20;;;;;;;18.97;88.00;100346.31;7394150;19;20019;-67
2023/07/28 04:30:52;;;;;;;7.97;4.95;;;;;;;18.97;88.32;100356.22;7396393;19;20021;-73
2023/07/28 04:33:19;;;;;;;9.00;4.90;;;;;;;18.97;88.15;100348.19;7397315;19;20015;-73
2023/07/28 04:35:46;;;;;;;9.32;5.70;;;;;;;19.01;87.88;100362.91;7394390;19;20018;-65
2023/07/28 04:38:13;;;;;;;11.80;6.57;;;;;;;19.01;88.09;100364.75;7396075;19;20122;-63
2023/07/28 04:40:41;;;;;;;13.68;6.45;;;;;;;19.02;88.05;100374.47;7395859;19;20018;-64
2023/07/28 04:43:08;;;;;;;13.30;6.93;;;;;;;19.04;88.22;100375.13;7396214;19;20051;-65
2023/07/28 04:45:35;;;;;;;12.57;6.78;;;;;;;18.99;88.48;100376.50;7393423;19;20043;-67
2023/07/28 04:48:03;;;;;;;11.10;6.43;;;;;;;19.00;88.57;100374.63;7395591;19;20096;-66
2023/07/28 04:50:33;;;;;;;9.52;5.35;;;;;;;18.96;88.22;100367.97;7395433;19;20036;-66
2023/07/28 04:53:00;;;;;;;9.52;5.28;;;;;;;18.94;88.56;100378.88;7394923;19;20031;-66
2023/07/28 04:55:28;;;;;;;8.63;5.13;;;;;;;18.96;88.37;100378.69;7392469;19;20026;-66
2023/07/28 04:57:55;;;;;;;10.52;5.60;;;;;;;18.97;88.33;100383.91;7394590;19;20014;-66
2023/07/28 05:00:23;;;;;;;9.23;5.35;;;;;;;18.97;87.90;100380.38;7396243;19;20153;-66
2023/07/28 05:02:50;;;;;;;7.97;4.40;;;;;;;18.97;87.50;100385.75;7393529;19;20086;-65
2023/07/28 05:05:17;;;;;;;8.27;4.70;;;;;;;18.95;87.71;100380.53;7394250;19;20032;-66
2023/07/28 05:07:45;;;;;;;6.53;4.38;;;;;;;18.98;87.72;100390.09;7394254;19;20026;-65
2023/07/28 05:10:12;;;;;;;7.43;3.92;;;;;;;18.99;87.66;100383.72;7392439;19;20042;-65
2023/07/28 05:12:39;;;;;;;6.38;3.65;;;;;;;19.00;87.30;100393.44;7394558;19;20035;-65
2023/07/28 05:15:10;;;;;;;6.45;3.85;;;;;;;18.99;87.13;100389.06;7393704;19;20047;-66
2023/07/28 05:17:37;;;;;;;5.68;3.60;;;;;;;19.01;87.41;100387.06;7394952;19;20524;-65
2023/07/28 05:20:05;;;;;;;5.35;3.53;;;;;;;19.01;87.30;100399.66;7394080;19;20018;-68
2023/07/28 05:22:32;;;;;;;5.65;3.00;;;;;;;19.02;87.05;100391.41;7392894;19;20033;-64
2023/07/28 05:25:00;;;;;;;5.50;3.20;;;;;;;18.98;87.12;100396.31;7393854;19;20527;-60
2023/07/28 05:27:27;;;;;;;5.85;3.15;;;;;;;18.99;87.03;100395.28;7391921;19;20018;-61
2023/07/28 05:29:55;;;;;;;5.40;3.50;;;;;;;18.97;87.06;100400.00;7391092;19;20015;-61
2023/07/28 05:32:22;;;;;;;5.70;3.60;;;;;;;18.98;86.92;100411.56;7393771;19;20495;-61
2023/07/28 05:34:49;;;;;;;6.20;3.50;;;;;;;18.99;86.95;100397.97;7396907;19;20022;-61
2023/07/28 05:37:17;;;;;;;5.13;3.38;;;;;;;18.96;86.81;100401.03;7392517;19;20157;-61
2023/07/28 05:39:44;;;;;;;6.35;3.55;;;;;;;18.98;86.97;100411.56;7394462;19;20018;-61
2023/07/28 05:42:11;;;;;;;5.22;3.28;;;;;;;18.98;86.93;100401.66;7393927;19;20018;-60
2023/07/28 05:44:39;;;;;;;5.97;3.60;;;;;;;18.98;87.17;100400.84;7393479;19;20031;-60
2023/07/28 05:47:07;;;;;;;6.90;3.80;;;;;;;18.97;87.10;100410.75;7391665;19;20022;-61
2023/07/28 05:49:34;;;;;;;6.07;3.67;;;;;;;18.97;87.19;100410.75;7392185;19;20018;-60
2023/07/28 05:52:01;;;;;;;7.22;4.03;;;;;;;19.02;87.10;100414.75;7391407;19;20364;-60
2023/07/28 05:54:29;;;;;;;7.50;4.18;;;;;;;19.03;87.10;100409.19;7393477;19;20356;-61
2023/07/28 05:56:56;;;;;;;6.47;4.10;;;;;;;19.11;86.87;100408.28;7388196;19;20026;-61
2023/07/28 05:59:23;;;;;;;7.55;4.40;;;;;;;19.14;86.82;100405.25;7393429;19;20022;-62
2023/07/28 06:01:51;;;;;;;9.80;4.80;;;;;;;19.07;87.09;100407.81;7392825;19;20022;-62
2023/07/28 06:04:18;;;;;;;8.48;4.10;;;;;;;19.01;87.77;100408.53;7393496;19;20074;-62
2023/07/28 06:06:47;;;;;;;7.70;4.10;;;;;;;19.04;87.30;100418.94;7390621;19;20374;-63
2023/07/28 06:09:14;;;;;;;7.97;4.22;;;;;;;19.05;87.75;100417.91;7392322;19;20090;-63
2023/07/28 06:11:41;;;;;;;7.18;4.60;;;;;;;19.05;87.54;100419.75;7391203;19;20018;-63
2023/07/28 06:14:09;;;;;;;9.23;4.53;;;;;;;19.02;87.53;100418.25;7392089;19;20220;-64
2023/07/28 06:16:36;;;;;;;9.45;4.63;;;;;;;19.02;87.66;100430.84;7390741;19;20029;-63
2023/07/28 06:19:04;;;;;;;7.00;4.38;;;;;;;19.05;87.61;100428.66;7391028;19;20014;-63
2023/07/28 06:21:31;;;;;;;8.02;4.90;;;;;;;19.10;87.23;100431.63;7392614;19;20126;-61
2023/07/28 06:23:59;;;;;;;7.93;5.00;;;;;;;19.08;87.24;100439.03;7390421;19;20400;-65
2023/07/28 06:26:26;;;;;;;12.20;6.45;;;;;;;19.11;87.57;100433.28;7390392;19;20015;-65
2023/07/28 06:28:53;;;;;;;11.10;6.00;;;;;;;19.20;87.12;100426.88;7389620;19;20019;-64
2023/07/28 06:31:21;;;;;;;12.48;7.30;;;;;;;19.30;86.84;100429.31;7392188;19;20043;-64
2023/07/28 06:33:48;;;;;;;13.35;8.80;;;;;;;19.38;86.84;100439.16;7393663;19;20467;-66
2023/07/28 06:36:16;;;;;;;14.75;9.88;;;;;;;19.34;87.15;100432.47;7390585;19;20011;-64
2023/07/28 06:38:45;;;;;;;14.95;9.80;;;;;;;19.43;87.04;100445.69;7392063;19;20019;-64
2023/07/28 06:41:12;;;;;;;17.00;10.60;;;;;;;19.43;86.96;100437.63;7391273;19;20056;-64
2023/07/28 06:43:41;;;;;;;17.25;9.90;;;;;;;19.48;86.92;100445.16;7392045;19;20210;-63
2023/07/28 06:46:08;;;;;;;15.13;9.90;;;;;;;19.57;86.72;100441.38;7389948;19;20101;-63
2023/07/28 06:48:36;;;;;;;19.27;10.85;;;;;;;19.61;86.54;100445.41;7391616;19;20025;-65
2023/07/28 06:51:03;;;;;;;18.52;10.27;;;;;;;19.69;86.23;100453.44;7389925;19;20051;-64
2023/07/28 06:53:30;;;;;;;15.68;10.50;;;;;;;19.57;86.58;100456.66;7391565;19;20023;-65
2023/07/28 06:55:57;;;;;;;15.10;9.75;;;;;;;19.55;86.95;100462.22;7389151;19;20014;-65
2023/07/28 06:58:25;;;;;;;18.02;10.85;;;;;;;19.55;87.56;100461.41;7391173;19;20015;-65
2023/07/28 07:00:53;;;;;;;15.88;10.10;;;;;;;19.44;87.08;100460.78;7391272;19;20039;-65
2023/07/28 07:03:20;;;;;;;16.25;10.02;;;;;;;19.45;87.54;100465.13;7391346;19;20022;-66
2023/07/28 07:05:48;;;;;;;17.58;10.43;;;;;;;19.45;87.29;100467.81;7389896;19;20022;-65
2023/07/28 07:08:15;;;;;;;17.17;10.60;;;;;;;19.45;87.76;100458.94;7390381;19;20103;-63
2023/07/28 07:10:50;;;;;;;18.00;10.70;;;;;;;19.52;87.39;100473.31;7389566;19;20078;-63
2023/07/28 07:13:17;;;;;;;16.23;10.25;;;;;;;19.47;87.16;100470.34;7390624;19;20511;-64
2023/07/28 07:15:45;;;;;;;15.43;10.40;;;;;;;19.57;87.13;100473.63;7389663;19;20019;-63
2023/07/28 07:18:13;;;;;;;17.00;10.68;;;;;;;19.62;86.65;100465.91;7390928;19;20025;-63
2023/07/28 07:20:40;;;;;;;16.95;11.15;;;;;;;19.54;87.17;100468.63;7390847;19;20018;-63
2023/07/28 07:23:07;;;;;;;18.40;10.82;;;;;;;19.48;86.87;100459.41;7390634;19;20078;-63
2023/07/28 07:25:35;;;;;;;18.60;11.32;;;;;;;19.51;87.52;100476.19;7390356;19;20043;-64
2023/07/28 07:28:02;;;;;;;18.70;11.02;;;;;;;19.48;87.36;100469.31;7389253;19;20019;-64
2023/07/28 07:30:33;;;;;;;16.73;10.50;;;;;;;19.55;87.35;100482.88;7389488;19;20015;-64
2023/07/28 07:33:00;;;;;;;20.02;11.52;;;;;;;19.43;87.85;100488.66;7390495;19;20035;-64
2023/07/28 07:35:28;;;;;;;17.40;11.88;;;;;;;19.40;87.75;100483.63;7389671;19;20027;-64
2023/07/28 07:37:55;;;;;;;17.40;11.35;;;;;;;19.46;87.28;100490.16;7390865;19;20035;-61
2023/07/28 07:40:23;;;;;;;18.10;11.77;;;;;;;19.48;87.32;100488.97;7389879;19;20599;-64
2023/07/28 07:42:55;;;;;;;19.85;12.35;;;;;;;19.49;87.27;100498.69;7389261;19;20384;-62
2023/07/28 07:45:22;;;;;;;19.98;12.00;;;;;;;19.46;87.37;100499.06;7387577;19;20014;-62
2023/07/28 07:47:50;;;;;;;20.25;12.73;;;;;;;19.43;87.46;100504.78;7390392;19;20125;-63
2023/07/28 07:50:17;;;;;;;22.27;12.95;;;;;;;19.49;87.39;100508.59;7388333;19;20082;-62
2023/07/28 07:52:44;;;;;;;23.55;13.32;;;;;;;19.51;87.48;100503.91;7389894;19;20496;-63
2023/07/28 07:55:12;;;;;;;19.10;12.98;;;;;;;19.48;87.69;100507.75;7389194;19;20027;-63
2023/07/28 07:57:40;;;;;;;20.98;12.40;;;;;;;19.55;87.34;100517.81;7390077;19;20022;-63
2023/07/28 08:00:08;;;;;;;19.33;13.15;;;;;;;19.54;87.33;100519.66;7389774;19;20078;-63
2023/07/28 08:02:36;;;;;;;21.27;13.55;;;;;;;19.55;87.30;100524.00;7390032;19;20042;-63
2023/07/28 08:05:03;;;;;;;20.50;13.32;;;;;;;19.60;86.95;100518.94;7389298;19;20364;-63
2023/07/28 08:07:31;;;;;;;21.30;13.32;;;;;;;19.70;86.55;100527.63;7389309;19;20027;-60
2023/07/28 08:09:58;;;;;;;18.38;12.38;;;;;;;19.84;86.04;100523.34;7389169;19;20028;-63
2023/07/28 08:12:26;;;;;;;19.95;12.38;;;;;;;19.95;85.68;100536.34;7387458;19;20726;-62
2023/07/28 08:14:54;;;;;;;20.73;11.55;;;;;;;20.07;84.88;100525.19;7388956;19;20035;-62
2023/07/28 08:17:23;;;;;;;18.92;12.48;;;;;;;20.09;85.48;100533.91;7387059;19;20099;-64
2023/07/28 08:19:50;;;;;;;17.58;11.98;;;;;;;20.06;85.14;100540.47;7390459;19;20484;-64
2023/07/28 08:22:18;;;;;;;19.75;11.88;;;;;;;20.14;85.24;100536.88;7396307;19;20022;-63
2023/07/28 08:24:46;;;;;;;18.48;11.73;;;;;;;20.25;84.96;100541.84;7395770;19;20017;-63
2023/07/28 08:27:13;;;;;;;18.23;11.07;;;;;;;20.13;85.04;100536.06;7393591;19;20019;-62
2023/07/28 08:29:40;;;;;;;18.63;11.55;;;;;;;20.27;84.92;100553.25;7395483;19;20027;-62
2023/07/28 08:32:08;;;;;;;21.02;12.13;;;;;;;20.25;84.90;100552.59;7394414;19;20019;-63
2023/07/28 08:34:35;;;;;;;16.17;10.35;;;;;;;20.20;85.60;100552.31;7398790;19;20028;-62
2023/07/28 08:37:02;;;;;;;17.38;11.23;;;;;;;20.13;85.89;100551.34;7393899;19;20018;-62
2023/07/28 08:39:30;;;;;;;19.83;10.45;;;;;;;20.19;85.60;100547.94;7395814;19;20033;-62
2023/07/28 08:42:01;;;;;;;18.35;11.10;;;;;;;20.12;85.98;100553.22;7395712;19;20021;-65
2023/07/28 08:44:33;;;;;;;21.67;11.07;;;;;;;20.15;85.87;100558.22;7392954;19;20361;-62
2023/07/28 08:47:04;;;;;;;17.58;10.65;;;;;;;20.13;86.54;100562.09;7394128;19;20026;-61
2023/07/28 08:49:36;;;;;;;17.45;12.27;;;;;;;20.09;86.52;100564.31;7395570;19;20022;-61
2023/07/28 08:52:06;;;;;;;17.10;10.93;;;;;;;20.02;86.96;100567.91;7394212;19;20018;-63
2023/07/28 08:54:33;;;;;;;15.57;11.15;;;;;;;19.90;87.37;100567.47;7394854;19;20022;-63
2023/07/28 08:57:00;;;;;;;17.00;11.52;;;;;;;19.94;87.43;100566.94;7393548;19;20126;-63
2023/07/28 08:59:29;;;;;;;15.27;10.40;;;;;;;20.04;86.61;100566.72;7393449;19;20019;-64
2023/07/28 09:01:59;;;;;;;18.48;11.52;;;;;;;20.04;86.97;100574.78;7395465;19;20046;-68
2023/07/28 09:04:27;;;;;;;17.67;11.27;;;;;;;20.18;86.17;100578.53;7395166;19;20122;-62
2023/07/28 09:06:54;;;;;;;15.77;9.93;;;;;;;20.28;85.83;100584.50;7392959;19;20039;-60
2023/07/28 09:09:23;;;;;;;14.70;10.20;;;;;;;20.29;85.31;100585.34;7394810;19;20021;-60
2023/07/28 09:11:53;;;;;;;16.50;10.50;;;;;;;20.32;85.34;100587.66;7392226;19;20026;-60
2023/07/28 09:14:25;;;;;;;15.75;10.82;;;;;;;20.44;85.20;100583.53;7395041;19;20394;-60
2023/07/28 09:16:53;;;;;;;16.90;11.02;;;;;;;20.62;84.58;100592.16;7392381;19;20488;-60
2023/07/28 09:19:21;;;;;;;17.20;10.93;;;;;;;20.87;83.86;100589.19;7394811;19;20543;-64
2023/07/28 09:21:59;;;;;;;13.00;9.07;;;;;;;20.99;83.05;100589.59;7394346;19;20467;-60
2023/07/28 09:24:33;;;;;;;18.15;10.43;;;;;;;20.80;83.80;100593.66;7394527;19;20095;-60
2023/07/28 09:27:01;;;;;;;15.98;9.77;;;;;;;20.57;85.06;100588.34;7392596;19;20092;-60
2023/07/28 09:29:29;;;;;;;17.52;11.90;;;;;;;20.64;85.02;100586.56;7394677;19;20019;-61
2023/07/28 09:32:05;;;;;;;16.52;11.30;;;;;;;20.89;83.64;100592.56;7392023;19;20018;-61
2023/07/28 09:34:32;;;;;;;17.23;10.52;;;;;;;20.89;84.25;100588.00;7397804;19;20028;-61
2023/07/28 09:37:00;;;;;;;16.83;10.20;;;;;;;20.84;83.63;100594.97;7392190;19;20025;-65
2023/07/28 09:39:28;;;;;;;14.20;9.70;;;;;;;20.96;83.83;100593.50;7393861;19;20018;-65
2023/07/28 09:41:58;;;;;;;17.83;9.45;;;;;;;21.06;83.84;100585.97;7393273;19;20499;-65
2023/07/28 09:44:25;;;;;;;16.33;10.45;;;;;;;21.06;83.08;100591.38;7393945;19;20019;-65
2023/07/28 09:46:55;;;;;;;15.98;9.60;;;;;;;21.19;83.14;100596.09;7392147;19;20014;-65
2023/07/28 09:49:25;;;;;;;13.75;9.05;;;;;;;21.17;83.29;100601.66;7393253;19;20014;-65
2023/07/28 09:51:54;;;;;;;12.45;8.80;;;;;;;21.24;83.27;100600.91;7392129;19;20396;-64
2023/07/28 09:54:29;;;;;;;15.10;8.60;;;;;;;21.39;82.43;100609.84;7391470;19;20033;-64
2023/07/28 09:56:57;;;;;;;12.70;7.07;;;;;;;21.26;82.46;100606.97;7391675;19;20099;-64
2023/07/28 09:59:41;;;;;;;12.70;6.60;;;;;;;21.22;82.54;100608.38;7393208;19;20010;-63
2023/07/28 10:02:10;;;;;;;10.48;5.65;;;;;;;21.13;82.38;100610.28;7392053;19;20488;-64
2023/07/28 10:04:37;;;;;;;11.10;6.00;;;;;;;21.25;81.34;100607.97;7392281;19;20078;-64
2023/07/28 10:07:07;;;;;;;10.50;5.45;;;;;;;21.41;80.24;100619.44;7392155;19;20022;-65
2023/07/28 10:09:37;;;;;;;12.40;5.75;;;;;;;21.53;79.59;100614.41;7392838;19;20044;-66
2023/07/28 10:12:04;;;;;;;10.52;5.65;;;;;;;21.74;78.27;100605.50;7391510;19;20022;-66
2023/07/28 10:14:37;;;;;;;12.38;5.55;;;;;;;21.75;77.44;100609.91;7392247;19;20038;-66
2023/07/28 10:17:05;;;;;;;11.25;5.57;;;;;;;21.45;79.49;100619.06;7392079;19;20527;-63
2023/07/28 10:19:36;;;;;;;13.10;6.28;;;;;;;21.27;80.35;100605.94;7393260;19;20024;-64
2023/07/28 10:22:09;;;;;;;13.32;5.60;;;;;;;21.22;80.66;100627.22;7390966;19;20014;-60
2023/07/28 10:25:00;;;;;;;7.30;3.30;;;;;;;21.12;79.79;100630.19;7391708;19;20018;-60
2023/07/28 10:27:34;;;;;;;4.03;1.92;;;;;;;20.94;79.18;100623.28;7390974;19;20362;-60
2023/07/28 10:30:12;;;;;;;5.97;2.45;;;;;;;20.87;79.24;100624.19;7390528;19;20014;-60
2023/07/28 10:32:42;;;;;;;5.35;2.63;;;;;;;20.82;79.96;100632.81;7392034;19;20022;-64
2023/07/28 10:35:13;;;;;;;8.63;4.60;;;;;;;20.93;79.81;100628.84;7391809;19;20095;-65
2023/07/28 10:37:44;;;;;;;10.80;4.90;;;;;;;21.13;79.75;100634.53;7389207;19;20082;-62
2023/07/28 10:40:34;;;;;;;13.57;6.55;;;;;;;21.23;79.56;100636.97;7392400;19;20023;-60
2023/07/28 10:43:04;;;;;;;15.10;7.57;;;;;;;21.07;80.27;100632.59;7388623;19;20360;-60
2023/07/28 10:45:32;;;;;;;16.98;8.05;;;;;;;21.01;80.38;100631.47;7394088;19;20014;-63
2023/07/28 10:48:00;;;;;;;13.55;8.05;;;;;;;21.04;80.71;100636.47;7396239;19;20042;-62
2023/07/28 10:50:30;;;;;;;11.40;6.40;;;;;;;21.28;80.47;100632.66;7393903;19;20035;-62
2023/07/28 10:52:58;;;;;;;12.07;6.15;;;;;;;21.31;80.86;100636.88;7396014;19;20022;-62
2023/07/28 10:55:27;;;;;;;15.65;5.93;;;;;;;21.40;80.84;100636.59;7392399;19;20018;-63
2023/07/28 10:57:55;;;;;;;11.30;5.10;;;;;;;21.52;80.07;100636.13;7387664;19;20362;-61
2023/07/28 11:00:22;;;;;;;8.32;3.90;;;;;;;21.57;79.56;100645.34;7392941;19;20026;-62
2023/07/28 11:02:53;;;;;;;7.20;3.22;;;;;;;21.69;78.58;100644.84;7394964;19;20039;-63
2023/07/28 11:05:26;;;;;;;9.63;4.00;;;;;;;21.54;78.86;100640.31;7393835;19;20014;-62
2023/07/28 11:07:56;;;;;;;8.05;3.20;;;;;;;21.41;79.04;100642.84;7394042;19;20026;-62
2023/07/28 11:10:25;;;;;;;5.45;2.75;;;;;;;21.33;78.14;100648.31;7390185;19;20011;-62
2023/07/28 11:12:53;;;;;;;8.25;3.33;;;;;;;21.27;77.71;100646.34;7391177;19;20034;-61
2023/07/28 11:15:20;;;;;;;5.43;2.83;;;;;;;21.29;76.94;100646.97;7390648;19;20018;-61
2023/07/28 11:17:50;;;;;;;5.55;2.88;;;;;;;21.35;76.73;100665.97;7389345;19;20019;-62
2023/07/28 11:20:22;;;;;;;6.22;3.40;;;;;;;21.46;75.89;100651.19;7389458;19;20014;-62
2023/07/28 11:23:04;;;;;;;8.23;3.72;;;;;;;21.76;74.09;100651.16;7389268;19;20082;-62
2023/07/28 11:25:33;;;;;;;12.65;4.32;;;;;;;22.01;73.69;100648.97;7389651;19;20535;-62